createdAt,value
2018-07-27T00:01:01.888Z,98402.00
2018-07-27T00:03:30.648Z,98400.00
2018-07-27T00:05:59.370Z,98396.00
2018-07-27T00:08:28.123Z,98398.00
2018-07-27T00:10:56.796Z,98374.00
2018-07-27T00:13:25.517Z,98398.00
2018-07-27T00:15:54.173Z,98391.00
2018-07-27T00:18:22.855Z,98389.00
2018-07-27T00:20:51.533Z,98390.00
2018-07-27T00:23:20.247Z,98391.00
2018-07-27T00:25:48.956Z,98390.00
2018-07-27T00:28:23.465Z,98379.00
2018-07-27T00:30:55.229Z,98380.00
2018-07-27T00:33:23.918Z,98389.00
2018-07-27T00:35:52.590Z,98394.00
2018-07-27T00:38:21.328Z,98392.00
2018-07-27T00:40:50.028Z,98379.00
2018-07-27T00:43:18.686Z,98372.00
2018-07-27T00:45:47.377Z,98367.00
2018-07-27T00:48:16.014Z,98370.00
2018-07-27T00:50:44.745Z,98372.00
2018-07-27T00:53:13.438Z,98376.00
2018-07-27T00:55:42.111Z,98375.00
2018-07-27T00:58:10.771Z,98375.00
2018-07-27T01:00:39.456Z,98372.00
2018-07-27T01:03:08.746Z,98369.00
2018-07-27T01:05:37.435Z,98370.00
2018-07-27T01:08:06.423Z,98375.00
2018-07-27T01:10:35.096Z,98387.00
2018-07-27T01:13:03.863Z,98381.00
2018-07-27T01:15:32.395Z,98376.00
2018-07-27T01:18:01.098Z,98375.00
2018-07-27T01:20:29.891Z,98371.00
2018-07-27T01:22:58.580Z,98373.00
2018-07-27T01:25:27.276Z,98369.00
2018-07-27T01:27:55.763Z,98374.00
2018-07-27T01:30:24.268Z,98373.00
2018-07-27T01:32:53.019Z,98377.00
2018-07-27T01:35:21.547Z,98371.00
2018-07-27T01:37:50.203Z,98366.00
2018-07-27T01:40:18.643Z,98362.00
2018-07-27T01:42:47.346Z,98364.00
2018-07-27T01:45:16.051Z,98356.00
2018-07-27T01:47:44.496Z,98355.00
2018-07-27T01:50:13.185Z,98349.00
2018-07-27T01:52:41.881Z,98354.00
2018-07-27T01:55:10.635Z,98357.00
2018-07-27T01:57:39.325Z,98357.00
2018-07-27T02:00:08.183Z,98355.00
2018-07-27T02:02:36.885Z,98353.00
2018-07-27T02:05:06.564Z,98351.00
2018-07-27T02:07:35.032Z,98355.00
2018-07-27T02:10:04.210Z,98352.00
2018-07-27T02:12:32.900Z,98351.00
2018-07-27T02:15:01.543Z,98353.00
2018-07-27T02:17:30.247Z,98352.00
2018-07-27T02:19:58.895Z,98356.00
2018-07-27T02:22:27.585Z,98350.00
2018-07-27T02:24:56.239Z,98345.00
2018-07-27T02:27:24.738Z,98351.00
2018-07-27T02:29:53.406Z,98344.00
2018-07-27T02:32:21.906Z,98339.00
2018-07-27T02:34:50.652Z,98337.00
2018-07-27T02:37:19.320Z,98330.00
2018-07-27T02:39:47.992Z,98335.00
2018-07-27T02:42:16.735Z,98339.00
2018-07-27T02:44:45.315Z,98336.00
2018-07-27T02:47:14.029Z,98332.00
2018-07-27T02:49:42.763Z,98330.00
2018-07-27T02:52:11.545Z,98334.00
2018-07-27T02:54:40.344Z,98338.00
2018-07-27T02:57:09.043Z,98336.00
2018-07-27T02:59:37.773Z,98333.00
2018-07-27T03:02:06.648Z,98330.00
2018-07-27T03:04:35.336Z,98327.00
2018-07-27T03:07:04.168Z,98328.00
2018-07-27T03:09:32.869Z,98336.00
2018-07-27T03:12:01.575Z,98335.00
2018-07-27T03:14:30.229Z,98343.00
2018-07-27T03:16:58.918Z,98336.00
2018-07-27T03:19:27.611Z,98338.00
2018-07-27T03:21:56.138Z,98341.00
2018-07-27T03:24:24.802Z,98343.00
2018-07-27T03:26:53.289Z,98340.00
2018-07-27T03:29:21.927Z,98335.00
2018-07-27T03:31:50.751Z,98331.00
2018-07-27T03:34:19.450Z,98331.00
2018-07-27T03:36:48.116Z,98329.00
2018-07-27T03:39:16.686Z,98338.00
2018-07-27T03:41:45.333Z,98343.00
2018-07-27T03:44:14.058Z,98342.00
2018-07-27T03:46:42.710Z,98343.00
2018-07-27T03:49:11.471Z,98340.00
2018-07-27T03:51:40.151Z,98345.00
2018-07-27T03:54:08.876Z,98348.00
2018-07-27T03:56:37.556Z,98350.00
2018-07-27T03:59:06.224Z,98363.00
2018-07-27T04:01:35.043Z,98358.00
2018-07-27T04:04:03.700Z,98355.00
2018-07-27T04:06:32.336Z,98357.00
2018-07-27T04:09:00.990Z,98356.00
2018-07-27T04:11:29.615Z,98358.00
2018-07-27T04:13:58.119Z,98360.00
2018-07-27T04:16:26.828Z,98361.00
2018-07-27T04:18:55.525Z,98360.00
2018-07-27T04:21:24.247Z,98360.00
2018-07-27T04:23:52.715Z,98358.00
2018-07-27T04:26:21.439Z,98357.00
2018-07-27T04:28:50.108Z,98363.00
2018-07-27T04:31:18.617Z,98365.00
2018-07-27T04:33:47.323Z,98364.00
2018-07-27T04:36:16.016Z,98362.00
2018-07-27T04:38:44.665Z,98364.00
2018-07-27T04:41:13.368Z,98368.00
2018-07-27T04:43:42.046Z,98372.00
2018-07-27T04:46:10.744Z,98374.00
2018-07-27T04:48:39.508Z,98282.00
2018-07-27T04:51:08.193Z,98372.00
2018-07-27T04:53:36.955Z,98363.00
2018-07-27T04:56:05.817Z,98369.00
2018-07-27T04:58:34.535Z,98370.00
2018-07-27T05:01:03.070Z,98375.00
2018-07-27T05:03:31.765Z,98377.00
2018-07-27T05:06:00.443Z,98369.00
2018-07-27T05:08:29.103Z,98365.00
2018-07-27T05:10:57.795Z,98369.00
2018-07-27T05:13:26.463Z,98370.00
2018-07-27T05:15:55.245Z,98373.00
2018-07-27T05:18:24.062Z,98373.00
2018-07-27T05:20:52.736Z,98374.00
2018-07-27T05:23:21.474Z,98377.00
2018-07-27T05:25:50.095Z,98373.00
2018-07-27T05:28:18.741Z,98377.00
2018-07-27T05:30:47.386Z,98371.00
2018-07-27T05:33:16.097Z,98370.00
2018-07-27T05:35:44.819Z,98373.00
2018-07-27T05:38:13.467Z,98371.00
2018-07-27T05:40:42.133Z,98371.00
2018-07-27T05:43:10.781Z,98371.00
2018-07-27T05:45:39.420Z,98368.00
2018-07-27T05:48:08.106Z,98371.00
2018-07-27T05:50:36.766Z,98374.00
2018-07-27T05:53:05.434Z,98373.00
2018-07-27T05:55:34.158Z,98373.00
2018-07-27T05:58:02.953Z,98372.00
2018-07-27T06:00:31.688Z,98377.00
2018-07-27T06:03:00.444Z,98260.00
2018-07-27T06:05:29.180Z,98374.00
2018-07-27T06:07:57.825Z,98379.00
2018-07-27T06:10:26.395Z,98382.00
2018-07-27T06:12:55.164Z,98381.00
2018-07-27T06:15:24.099Z,98375.00
2018-07-27T06:17:52.887Z,98379.00
2018-07-27T06:20:21.581Z,98380.00
2018-07-27T06:22:50.336Z,98381.00
2018-07-27T06:25:18.870Z,98391.00
2018-07-27T06:27:47.663Z,98383.00
2018-07-27T06:30:16.387Z,98378.00
2018-07-27T06:32:45.028Z,98380.00
2018-07-27T06:35:13.733Z,98383.00
2018-07-27T06:37:42.490Z,98388.00
2018-07-27T06:40:11.248Z,98392.00
2018-07-27T06:42:39.718Z,98387.00
2018-07-27T06:45:08.252Z,98384.00
2018-07-27T06:47:36.920Z,98381.00
2018-07-27T06:50:05.947Z,98383.00
2018-07-27T06:52:34.805Z,98377.00
2018-07-27T06:55:03.306Z,98381.00
2018-07-27T06:57:31.933Z,98380.00
2018-07-27T07:00:00.579Z,98383.00
2018-07-27T07:02:29.240Z,98383.00
2018-07-27T07:04:57.899Z,98385.00
2018-07-27T07:07:26.627Z,98388.00
2018-07-27T07:09:55.354Z,98394.00
2018-07-27T07:12:23.981Z,98389.00
2018-07-27T07:14:52.902Z,98388.00
2018-07-27T07:17:21.631Z,98391.00
2018-07-27T07:19:50.274Z,98386.00
2018-07-27T07:22:18.974Z,98378.00
2018-07-27T07:24:47.664Z,98377.00
2018-07-27T07:27:16.375Z,98376.00
2018-07-27T07:29:44.844Z,98377.00
2018-07-27T07:32:13.332Z,98373.00
2018-07-27T07:34:42.804Z,98370.00
2018-07-27T07:37:12.711Z,98373.00
2018-07-27T07:39:42.470Z,98368.00
2018-07-27T07:42:11.146Z,98369.00
2018-07-27T07:44:39.615Z,98370.00
2018-07-27T07:47:08.293Z,98371.00
2018-07-27T07:49:37.006Z,98371.00
2018-07-27T07:52:05.868Z,98364.00
2018-07-27T07:54:37.721Z,98366.00
2018-07-27T07:57:06.532Z,98365.00
2018-07-27T07:59:35.091Z,98373.00
2018-07-27T08:02:03.866Z,98372.00
2018-07-27T08:04:33.489Z,98351.00
2018-07-27T08:07:02.236Z,98374.00
2018-07-27T08:09:30.926Z,98370.00
2018-07-27T08:12:00.376Z,98371.00
2018-07-27T08:14:29.328Z,98371.00
2018-07-27T08:16:58.119Z,98368.00
2018-07-27T08:19:27.638Z,98370.00
2018-07-27T08:21:56.358Z,98373.00
2018-07-27T08:24:24.806Z,98371.00
2018-07-27T08:26:55.507Z,98373.00
2018-07-27T08:29:28.153Z,98372.00
2018-07-27T08:31:57.344Z,98363.00
2018-07-27T08:34:25.911Z,98358.00
2018-07-27T08:36:54.823Z,98362.00
2018-07-27T08:39:24.762Z,98362.00
2018-07-27T08:41:53.536Z,98359.00
2018-07-27T08:44:27.533Z,98358.00
2018-07-27T08:46:56.289Z,98351.00
2018-07-27T08:49:25.051Z,98350.00
2018-07-27T08:51:53.879Z,98349.00
2018-07-27T08:54:22.669Z,98350.00
2018-07-27T08:56:51.333Z,98341.00
2018-07-27T08:59:20.027Z,98345.00
2018-07-27T09:01:48.791Z,98343.00
2018-07-27T09:04:17.529Z,98346.00
2018-07-27T09:06:46.264Z,98347.00
2018-07-27T09:09:16.132Z,98347.00
2018-07-27T09:11:44.837Z,98344.00
2018-07-27T09:14:13.701Z,98347.00
2018-07-27T09:16:42.423Z,98345.00
2018-07-27T09:19:11.123Z,98348.00
2018-07-27T09:21:41.798Z,98350.00
2018-07-27T09:24:10.669Z,98349.00
2018-07-27T09:26:39.339Z,98347.00
2018-07-27T09:29:08.017Z,98346.00
2018-07-27T09:31:36.699Z,98344.00
2018-07-27T09:34:05.518Z,98338.00
2018-07-27T09:36:34.201Z,98341.00
2018-07-27T09:39:03.066Z,98343.00
2018-07-27T09:41:31.801Z,98341.00
2018-07-27T09:44:00.384Z,98343.00
2018-07-27T09:46:29.177Z,98342.00
2018-07-27T09:48:57.851Z,98339.00
2018-07-27T09:51:26.386Z,98340.00
2018-07-27T09:53:55.166Z,98339.00
2018-07-27T09:56:23.925Z,98339.00
2018-07-27T09:58:53.370Z,98342.00
2018-07-27T10:01:23.353Z,98343.00
2018-07-27T10:03:53.413Z,98340.00
2018-07-27T10:06:22.147Z,98338.00
2018-07-27T10:08:50.838Z,98336.00
2018-07-27T10:11:20.007Z,98333.00
2018-07-27T10:13:48.731Z,98328.00
2018-07-27T10:16:17.459Z,98328.00
2018-07-27T10:18:46.201Z,98330.00
2018-07-27T10:21:14.918Z,98334.00
2018-07-27T10:23:43.614Z,98333.00
2018-07-27T10:26:16.324Z,98333.00
2018-07-27T10:28:45.001Z,98330.00
2018-07-27T10:31:13.654Z,98331.00
2018-07-27T10:33:42.393Z,98330.00
2018-07-27T10:36:11.028Z,98327.00
2018-07-27T10:38:39.781Z,98328.00
2018-07-27T10:41:08.397Z,98321.00
2018-07-27T10:43:37.053Z,98323.00
2018-07-27T10:46:07.385Z,98323.00
2018-07-27T10:48:36.091Z,98323.00
2018-07-27T10:51:04.783Z,98319.00
2018-07-27T10:53:33.431Z,98318.00
2018-07-27T10:56:02.205Z,98311.00
2018-07-27T10:58:31.838Z,98306.00
2018-07-27T11:01:00.486Z,98301.00
2018-07-27T11:03:28.973Z,98300.00
2018-07-27T11:05:58.536Z,98301.00
2018-07-27T11:08:28.171Z,98296.00
2018-07-27T11:10:56.871Z,98296.00
2018-07-27T11:13:25.541Z,98293.00
2018-07-27T11:15:54.270Z,98296.00
2018-07-27T11:18:22.969Z,98291.00
2018-07-27T11:20:51.630Z,98290.00
2018-07-27T11:23:20.278Z,98294.00
2018-07-27T11:25:48.928Z,98289.00
2018-07-27T11:28:17.600Z,98284.00
2018-07-27T11:30:46.691Z,98282.00
2018-07-27T11:33:15.366Z,98282.00
2018-07-27T11:35:44.105Z,98284.00
2018-07-27T11:38:12.811Z,98278.00
2018-07-27T11:40:41.703Z,98277.00
2018-07-27T11:43:10.454Z,98278.00
2018-07-27T11:45:39.123Z,98277.00
2018-07-27T11:48:07.805Z,98275.00
2018-07-27T11:50:36.486Z,98275.00
2018-07-27T11:53:05.251Z,98275.00
2018-07-27T11:55:33.915Z,98277.00
2018-07-27T11:58:02.580Z,98276.00
2018-07-27T12:00:32.174Z,98266.00
2018-07-27T12:03:00.876Z,98262.00
2018-07-27T12:05:29.684Z,98261.00
2018-07-27T12:07:58.195Z,98254.00
2018-07-27T12:10:26.953Z,98256.00
2018-07-27T12:12:55.852Z,98257.00
2018-07-27T12:15:24.348Z,98257.00
2018-07-27T12:17:53.040Z,98258.00
2018-07-27T12:20:21.865Z,98253.00
2018-07-27T12:22:50.552Z,98261.00
2018-07-27T12:25:19.291Z,98257.00
2018-07-27T12:27:48.094Z,98256.00
2018-07-27T12:30:16.747Z,98198.00
2018-07-27T12:32:45.193Z,98252.00
2018-07-27T12:35:13.872Z,98250.00
2018-07-27T12:37:42.625Z,98252.00
2018-07-27T12:40:11.320Z,98250.00
2018-07-27T12:42:39.990Z,98242.00
2018-07-27T12:45:08.686Z,98240.00
2018-07-27T12:47:38.135Z,98239.00
2018-07-27T12:50:06.893Z,98241.00
2018-07-27T12:52:36.273Z,98235.00
2018-07-27T12:55:05.653Z,98230.00
2018-07-27T12:57:35.078Z,98228.00
2018-07-27T13:00:05.399Z,98223.00
2018-07-27T13:02:34.146Z,98218.00
2018-07-27T13:05:02.877Z,98215.00
2018-07-27T13:07:31.666Z,98211.00
2018-07-27T13:10:06.497Z,98203.00
2018-07-27T13:12:36.908Z,98205.00
2018-07-27T13:15:07.740Z,98200.00
2018-07-27T13:17:38.099Z,98195.00
2018-07-27T13:20:07.543Z,98192.00
2018-07-27T13:22:36.312Z,98196.00
2018-07-27T13:25:05.167Z,98194.00
2018-07-27T13:27:33.810Z,98188.00
2018-07-27T13:30:03.866Z,98186.00
2018-07-27T13:32:32.543Z,98185.00
2018-07-27T13:35:01.361Z,98185.00
2018-07-27T13:40:01.264Z,98186.00
2018-07-27T13:42:31.290Z,98181.00
2018-07-27T13:45:00.083Z,98185.00
2018-07-27T13:47:28.813Z,98181.00
2018-07-27T13:49:57.551Z,98180.00
2018-07-27T13:52:26.241Z,98179.00
2018-07-27T13:54:55.388Z,98159.00
2018-07-27T13:57:24.118Z,98172.00
2018-07-27T13:59:52.915Z,98161.00
2018-07-27T14:02:22.083Z,98172.00
2018-07-27T14:04:50.839Z,98160.00
2018-07-27T14:07:20.135Z,98163.00
2018-07-27T14:09:48.845Z,98155.00
2018-07-27T14:12:17.376Z,98157.00
2018-07-27T14:14:46.076Z,98152.00
2018-07-27T14:17:14.796Z,98152.00
2018-07-27T14:19:43.513Z,98153.00
2018-07-27T14:22:12.228Z,98154.00
2018-07-27T14:24:40.945Z,98143.00
2018-07-27T14:27:09.904Z,98149.00
2018-07-27T14:29:39.130Z,98145.00
2018-07-27T14:32:08.712Z,98147.00
2018-07-27T14:34:37.473Z,98142.00
2018-07-27T14:37:06.321Z,98150.00
2018-07-27T14:39:35.005Z,98147.00
2018-07-27T14:42:03.755Z,98149.00
2018-07-27T14:44:32.629Z,98128.00
2018-07-27T14:47:01.296Z,98145.00
2018-07-27T14:49:29.992Z,98147.00
2018-07-27T14:51:58.675Z,98147.00
2018-07-27T14:54:27.430Z,98147.00
2018-07-27T14:56:56.190Z,98151.00
2018-07-27T14:59:25.378Z,98152.00
2018-07-27T15:01:54.056Z,98148.00
2018-07-27T15:04:22.778Z,98149.00
2018-07-27T15:06:51.515Z,98150.00
2018-07-27T15:09:20.142Z,98150.00
2018-07-27T15:11:48.800Z,98148.00
2018-07-27T15:14:17.522Z,98150.00
2018-07-27T15:16:46.755Z,98148.00
2018-07-27T15:19:15.428Z,98146.00
2018-07-27T15:21:43.930Z,98139.00
2018-07-27T15:24:12.662Z,98145.00
2018-07-27T15:26:41.403Z,98149.00
2018-07-27T15:29:11.066Z,98151.00
2018-07-27T15:31:39.766Z,98142.00
2018-07-27T15:34:08.258Z,98151.00
2018-07-27T15:36:36.823Z,98145.00
2018-07-27T15:39:07.888Z,98144.00
2018-07-27T15:41:36.861Z,98141.00
2018-07-27T15:44:05.633Z,98143.00
2018-07-27T15:46:34.350Z,98140.00
2018-07-27T15:49:03.572Z,98136.00
2018-07-27T15:51:33.231Z,98135.00
2018-07-27T15:54:02.603Z,98136.00
2018-07-27T15:56:32.186Z,98141.00
2018-07-27T15:59:01.801Z,98141.00
2018-07-27T16:01:30.585Z,98145.00
2018-07-27T16:03:59.282Z,98145.00
2018-07-27T16:06:27.826Z,98138.00
2018-07-27T16:08:56.552Z,98141.00
2018-07-27T16:11:25.363Z,98136.00
2018-07-27T16:13:54.262Z,98139.00
2018-07-27T16:16:23.005Z,98140.00
2018-07-27T16:18:51.634Z,98136.00
2018-07-27T16:21:20.345Z,98140.00
2018-07-27T16:23:48.782Z,98139.00
2018-07-27T16:26:17.520Z,98140.00
2018-07-27T16:28:46.183Z,98149.00
2018-07-27T16:31:14.945Z,98152.00
2018-07-27T16:33:43.613Z,98150.00
2018-07-27T16:36:12.323Z,98149.00
2018-07-27T16:38:41.050Z,98159.00
2018-07-27T16:41:09.804Z,98166.00
2018-07-27T16:43:38.481Z,98167.00
2018-07-27T16:46:07.216Z,98170.00
2018-07-27T16:48:35.906Z,98173.00
2018-07-27T16:51:04.699Z,98168.00
2018-07-27T16:53:34.454Z,98171.00
2018-07-27T16:56:03.255Z,98181.00
2018-07-27T16:58:31.993Z,98177.00
2018-07-27T17:01:00.699Z,98174.00
2018-07-27T17:03:29.404Z,98178.00
2018-07-27T17:05:58.062Z,98175.00
2018-07-27T17:08:26.883Z,98175.00
2018-07-27T17:10:55.613Z,98176.00
2018-07-27T17:13:24.351Z,98181.00
2018-07-27T17:15:53.486Z,98183.00
2018-07-27T17:18:22.233Z,98192.00
2018-07-27T17:20:50.934Z,98190.00
2018-07-27T17:23:19.633Z,98191.00
2018-07-27T17:25:48.218Z,98189.00
2018-07-27T17:30:39.294Z,98193.00
2018-07-27T17:33:08.037Z,98184.00
2018-07-27T17:35:36.698Z,98183.00
2018-07-27T17:38:05.601Z,98184.00
2018-07-27T17:40:34.109Z,98191.00
2018-07-27T17:43:02.825Z,98193.00
2018-07-27T17:45:32.250Z,98200.00
2018-07-27T17:48:01.044Z,98203.00
2018-07-27T17:50:29.710Z,98205.00
2018-07-27T17:52:59.411Z,98198.00
2018-07-27T17:55:28.146Z,98194.00
2018-07-27T17:57:58.651Z,98194.00
2018-07-27T18:00:27.490Z,98200.00
2018-07-27T18:02:56.172Z,98197.00
2018-07-27T18:05:24.875Z,98196.00
2018-07-27T18:07:53.652Z,98192.00
2018-07-27T18:10:22.077Z,98193.00
2018-07-27T18:12:50.729Z,98192.00
2018-07-27T18:15:19.826Z,98193.00
2018-07-27T18:17:48.453Z,98201.00
2018-07-27T18:20:17.198Z,98204.00
2018-07-27T18:22:45.953Z,98204.00
2018-07-27T18:25:17.172Z,98207.00
2018-07-27T18:27:46.563Z,98205.00
2018-07-27T18:30:15.422Z,98207.00
2018-07-27T18:32:44.104Z,98206.00
2018-07-27T18:35:12.741Z,98204.00
2018-07-27T18:37:41.455Z,98204.00
2018-07-27T18:40:10.163Z,98203.00
2018-07-27T18:42:38.803Z,98208.00
2018-07-27T18:45:07.875Z,98211.00
2018-07-27T18:47:36.686Z,98215.00
2018-07-27T18:50:07.085Z,98217.00
2018-07-27T18:52:36.283Z,98221.00
2018-07-27T18:55:05.521Z,98221.00
2018-07-27T18:57:34.263Z,98227.00
2018-07-27T19:00:03.266Z,98228.00
2018-07-27T19:02:32.278Z,98233.00
2018-07-27T19:05:00.742Z,98235.00
2018-07-27T19:07:29.480Z,98232.00
2018-07-27T19:09:58.162Z,98236.00
2018-07-27T19:12:26.952Z,98242.00
2018-07-27T19:14:55.716Z,98239.00
2018-07-27T19:17:24.561Z,98243.00
2018-07-27T19:19:53.260Z,98242.00
2018-07-27T19:22:22.003Z,98245.00
2018-07-27T19:24:50.715Z,98247.00
2018-07-27T19:27:19.417Z,98244.00
2018-07-27T19:29:48.075Z,98247.00
2018-07-27T19:32:16.773Z,98253.00
2018-07-27T19:34:45.575Z,98259.00
2018-07-27T19:37:14.303Z,98265.00
2018-07-27T19:39:42.998Z,98265.00
2018-07-27T19:42:11.696Z,98268.00
2018-07-27T19:44:40.550Z,98269.00
2018-07-27T19:47:09.643Z,98274.00
2018-07-27T19:49:38.171Z,98277.00
2018-07-27T19:52:07.443Z,98279.00
2018-07-27T19:54:36.225Z,98283.00
2018-07-27T19:57:04.948Z,98284.00
2018-07-27T19:59:33.605Z,98291.00
2018-07-27T20:02:02.357Z,98296.00
2018-07-27T20:04:30.918Z,98298.00
2018-07-27T20:06:59.681Z,98297.00
2018-07-27T20:09:29.087Z,98294.00
2018-07-27T20:11:57.951Z,98298.00
2018-07-27T20:14:27.092Z,98293.00
2018-07-27T20:16:55.860Z,98294.00
2018-07-27T20:19:25.088Z,98292.00
2018-07-27T20:21:53.832Z,98287.00
2018-07-27T20:24:22.545Z,98286.00
2018-07-27T20:26:51.297Z,98285.00
2018-07-27T20:29:20.091Z,98293.00
2018-07-27T20:31:48.940Z,98290.00
2018-07-27T20:34:18.518Z,98289.00
2018-07-27T20:36:47.217Z,98293.00
2018-07-27T20:39:15.962Z,98289.00
2018-07-27T20:41:44.745Z,98291.00
2018-07-27T20:44:13.490Z,98292.00
2018-07-27T20:46:42.037Z,98288.00
2018-07-27T20:49:11.553Z,98294.00
2018-07-27T20:51:40.885Z,98303.00
2018-07-27T20:54:10.724Z,98306.00
2018-07-27T20:56:39.493Z,98306.00
2018-07-27T20:59:09.131Z,98304.00
2018-07-27T21:01:37.877Z,98310.00
2018-07-27T21:04:06.416Z,98308.00
2018-07-27T21:06:35.146Z,98304.00
2018-07-27T21:09:06.467Z,98304.00
2018-07-27T21:11:35.881Z,98302.00
2018-07-27T21:14:05.248Z,98303.00
2018-07-27T21:16:34.032Z,98303.00
2018-07-27T21:19:02.775Z,98307.00
2018-07-27T21:21:31.704Z,98311.00
2018-07-27T21:24:00.454Z,98316.00
2018-07-27T21:26:29.135Z,98319.00
2018-07-27T21:28:57.706Z,98315.00
2018-07-27T21:31:26.377Z,98316.00
2018-07-27T21:33:55.073Z,98318.00
2018-07-27T21:36:23.757Z,98320.00
2018-07-27T21:38:52.465Z,98323.00
2018-07-27T21:41:21.465Z,98330.00
2018-07-27T21:43:50.213Z,98336.00
2018-07-27T21:46:19.038Z,98333.00
2018-07-27T21:48:47.730Z,98330.00
2018-07-27T21:51:16.462Z,98331.00
2018-07-27T21:53:45.935Z,98332.00
2018-07-27T21:56:14.735Z,98339.00
2018-07-27T21:58:43.620Z,98335.00
2018-07-27T22:01:12.480Z,98334.00
2018-07-27T22:03:40.900Z,98329.00
2018-07-27T22:06:09.626Z,98335.00
2018-07-27T22:08:38.273Z,98333.00
2018-07-27T22:11:07.183Z,98335.00
2018-07-27T22:13:35.879Z,98337.00
2018-07-27T22:16:04.577Z,98338.00
2018-07-27T22:18:33.263Z,98337.00
2018-07-27T22:21:01.962Z,98333.00
2018-07-27T22:23:30.470Z,98332.00
2018-07-27T22:25:59.128Z,98331.00
2018-07-27T22:28:27.792Z,98325.00
2018-07-27T22:30:56.571Z,98331.00
2018-07-27T22:33:25.248Z,98333.00
2018-07-27T22:35:53.957Z,98329.00
2018-07-27T22:38:22.661Z,98330.00
2018-07-27T22:40:51.138Z,98328.00
2018-07-27T22:43:19.816Z,98328.00
2018-07-27T22:45:48.325Z,98322.00
2018-07-27T22:48:17.028Z,98329.00
2018-07-27T22:50:46.344Z,98327.00
2018-07-27T22:53:15.083Z,98329.00
2018-07-27T22:55:43.829Z,98326.00
2018-07-27T22:58:12.493Z,98325.00
2018-07-27T23:00:41.695Z,98328.00
2018-07-27T23:03:10.350Z,98333.00
2018-07-27T23:05:39.000Z,98333.00
2018-07-27T23:08:07.680Z,98328.00
2018-07-27T23:10:36.325Z,98334.00
2018-07-27T23:13:05.040Z,98335.00
2018-07-27T23:15:33.808Z,98331.00
2018-07-27T23:18:02.505Z,98333.00
2018-07-27T23:20:31.178Z,98331.00
2018-07-27T23:22:59.809Z,98327.00
2018-07-27T23:25:28.307Z,98324.00
2018-07-27T23:27:56.927Z,98323.00
2018-07-27T23:30:25.866Z,98329.00
2018-07-27T23:32:54.706Z,98332.00
2018-07-27T23:35:23.378Z,98336.00
2018-07-27T23:37:52.178Z,98335.00
2018-07-27T23:40:20.811Z,98331.00
2018-07-27T23:42:49.279Z,98325.00
2018-07-27T23:45:17.908Z,98321.00
2018-07-27T23:47:46.589Z,98323.00
2018-07-27T23:50:15.303Z,98321.00
2018-07-27T23:52:44.006Z,98317.00
2018-07-27T23:55:12.771Z,98314.00
2018-07-27T23:57:41.410Z,98314.00
